createdAt,value
2022-09-24T00:03:08.649Z,96936.06
2022-09-24T00:08:11.382Z,96937.19
2022-09-24T00:13:16.816Z,96936.34
2022-09-24T00:18:19.251Z,96936.06
2022-09-24T00:23:20.941Z,96932.78
2022-09-24T00:28:22.586Z,96934.97
2022-09-24T00:33:26.471Z,96934.44
2022-09-24T00:38:29.606Z,96936.09
2022-09-24T00:43:37.742Z,96927.88
2022-09-24T00:48:40.942Z,96920.75
2022-09-24T00:53:45.189Z,96923.75
2022-09-24T00:58:52.221Z,96915.28
2022-09-24T01:03:56.003Z,96908.16
2022-09-24T01:08:58.771Z,96896.69
2022-09-24T01:14:32.326Z,96897.22
2022-09-24T01:20:11.218Z,96882.47
2022-09-24T01:25:22.735Z,96881.34
2022-09-24T01:30:25.507Z,96875.91
2022-09-24T01:35:39.509Z,96869.31
2022-09-24T01:40:43.387Z,96865.19
2022-09-24T01:45:45.872Z,96856.41
2022-09-24T01:51:00.192Z,96840.81
2022-09-24T01:56:08.359Z,96837.84
2022-09-24T02:01:16.163Z,96843.88
2022-09-24T02:06:24.197Z,96843.31
2022-09-24T02:11:28.002Z,96834.84
2022-09-24T02:16:36.073Z,96834.88
2022-09-24T02:21:39.186Z,96830.78
2022-09-24T02:26:40.942Z,96821.75
2022-09-24T02:31:47.836Z,96814.34
2022-09-24T02:36:53.491Z,96807.50
2022-09-24T02:41:55.724Z,96800.13
2022-09-24T02:46:57.468Z,96811.88
2022-09-24T02:51:59.661Z,96806.44
2022-09-24T02:57:01.334Z,96807.53
2022-09-24T03:02:06.438Z,96804.75
2022-09-24T03:07:08.629Z,96796.56
2022-09-24T03:12:10.785Z,96783.16
2022-09-24T03:17:12.428Z,96782.34
2022-09-24T03:22:14.081Z,96780.69
2022-09-24T03:27:16.223Z,96793.81
2022-09-24T03:32:17.853Z,96791.38
2022-09-24T03:37:19.497Z,96806.41
2022-09-24T03:42:21.166Z,96807.75
2022-09-24T03:47:22.865Z,96812.13
2022-09-24T03:52:25.064Z,96809.13
2022-09-24T03:57:26.710Z,96798.22
2022-09-24T04:02:28.491Z,96795.50
2022-09-24T04:07:30.371Z,96795.50
2022-09-24T04:12:32.054Z,96797.38
2022-09-24T04:17:33.768Z,96785.63
2022-09-24T04:22:35.475Z,96774.94
2022-09-24T04:27:37.189Z,96767.59
2022-09-24T04:32:39.974Z,96769.22
2022-09-24T04:37:42.721Z,96781.81
2022-09-24T04:42:46.232Z,96775.22
2022-09-24T04:47:52.587Z,96767.59
2022-09-24T04:52:55.197Z,96773.31
2022-09-24T04:57:57.315Z,96772.50
2022-09-24T05:03:03.480Z,96789.69
2022-09-24T05:08:05.311Z,96792.16
2022-09-24T05:13:06.927Z,96767.03
2022-09-24T05:18:08.517Z,96764.84
2022-09-24T05:23:10.473Z,96770.84
2022-09-24T05:28:12.094Z,96779.06
2022-09-24T05:33:13.820Z,96755.00
2022-09-24T05:38:15.696Z,96753.91
2022-09-24T05:43:19.230Z,96759.38
2022-09-24T05:48:21.342Z,96763.75
2022-09-24T05:53:23.377Z,96773.88
2022-09-24T05:58:25.211Z,96776.09
2022-09-24T06:03:27.236Z,96764.84
2022-09-24T06:08:31.367Z,96761.28
2022-09-24T06:13:34.877Z,96752.25
2022-09-24T06:18:40.033Z,96759.34
2022-09-24T06:23:42.129Z,96766.16
2022-09-24T06:28:43.838Z,96773.78
2022-09-24T06:33:45.608Z,96775.69
2022-09-24T06:38:51.277Z,96774.53
2022-09-24T06:43:56.407Z,96782.69
2022-09-24T06:48:58.049Z,96788.69
2022-09-24T06:53:59.653Z,96787.34
2022-09-24T06:59:01.448Z,96783.22
2022-09-24T07:04:03.046Z,96781.81
2022-09-24T07:09:05.694Z,96787.25
2022-09-24T07:14:07.408Z,96782.28
2022-09-24T07:19:09.207Z,96789.66
2022-09-24T07:24:10.797Z,96786.31
2022-09-24T07:29:12.462Z,96791.44
2022-09-24T07:34:14.168Z,96797.19
2022-09-24T07:39:16.387Z,96798.63
2022-09-24T07:44:22.938Z,96806.78
2022-09-24T07:49:24.581Z,96794.19
2022-09-24T07:54:26.425Z,96811.94
2022-09-24T07:59:29.178Z,96812.97
2022-09-24T08:04:31.161Z,96809.06
2022-09-24T08:09:33.126Z,96807.34
2022-09-24T08:14:34.924Z,96815.44
2022-09-24T08:19:36.554Z,96814.28
2022-09-24T08:24:38.163Z,96827.31
2022-09-24T08:29:40.411Z,96819.53
2022-09-24T08:34:42.225Z,96813.34
2022-09-24T08:39:44.013Z,96821.44
2022-09-24T08:45:06.944Z,96827.06
2022-09-24T08:50:26.742Z,96831.88
2022-09-24T08:55:37.599Z,96831.41
2022-09-24T09:00:49.466Z,96833.38
2022-09-24T09:06:01.630Z,96833.97
2022-09-24T09:11:07.332Z,96828.44
2022-09-24T09:16:29.527Z,96827.13
2022-09-24T09:21:37.978Z,96844.03
2022-09-24T09:26:39.685Z,96846.75
2022-09-24T09:32:13.203Z,96836.88
2022-09-24T09:37:29.763Z,96837.50
2022-09-24T09:42:35.934Z,96837.50
2022-09-24T09:47:43.602Z,96842.72
2022-09-24T09:52:45.269Z,96845.47
2022-09-24T09:57:48.227Z,96848.72
2022-09-24T10:02:51.291Z,96853.81
2022-09-24T10:07:53.129Z,96852.25
2022-09-24T10:13:08.824Z,96847.66
2022-09-24T10:18:13.657Z,96859.03
2022-09-24T10:23:22.797Z,96851.91
2022-09-24T10:28:44.280Z,96861.28
2022-09-24T10:33:48.812Z,96855.38
2022-09-24T10:39:13.128Z,96845.56
2022-09-24T10:44:16.134Z,96852.44
2022-09-24T10:49:39.542Z,96856.22
2022-09-24T10:55:11.577Z,96850.09
2022-09-24T11:00:23.508Z,96844.22
2022-09-24T11:05:37.219Z,96842.19
2022-09-24T11:10:54.938Z,96844.41
2022-09-24T11:16:25.802Z,96843.22
2022-09-24T11:21:57.701Z,96854.84
2022-09-24T11:27:02.532Z,96861.84
2022-09-24T11:32:11.338Z,96859.91
2022-09-24T11:37:30.350Z,96846.69
2022-09-24T11:42:43.283Z,96851.19
2022-09-24T11:47:51.838Z,96850.50
2022-09-24T11:53:06.240Z,96844.00
2022-09-24T11:58:16.509Z,96850.44
2022-09-24T12:03:26.336Z,96831.88
2022-09-24T12:08:42.435Z,96834.75
2022-09-24T12:13:56.944Z,96823.63
2022-09-24T12:19:12.500Z,96826.28
2022-09-24T12:24:26.878Z,96834.88
2022-09-24T12:29:56.529Z,96828.63
2022-09-24T12:35:13.722Z,96830.28
2022-09-24T12:40:52.513Z,96819.25
2022-09-24T12:46:02.225Z,96829.13
2022-09-24T12:51:10.188Z,96819.72
2022-09-24T12:56:12.044Z,96818.03
2022-09-24T13:01:13.773Z,96816.38
2022-09-24T13:06:32.515Z,96810.53
2022-09-24T13:11:38.315Z,96814.66
2022-09-24T13:16:42.917Z,96814.75
2022-09-24T13:21:54.217Z,96817.81
2022-09-24T13:27:10.290Z,96817.81
2022-09-24T13:32:21.173Z,96813.91
2022-09-24T13:37:33.142Z,96821.09
2022-09-24T13:42:45.737Z,96815.75
2022-09-24T13:47:53.141Z,96811.06
2022-09-24T13:53:02.219Z,96813.91
2022-09-24T13:58:04.025Z,96807.91
2022-09-24T14:03:24.046Z,96798.22
2022-09-24T14:08:28.454Z,96792.91
2022-09-24T14:13:30.118Z,96796.16
2022-09-24T14:18:31.934Z,96804.94
2022-09-24T14:23:48.707Z,96798.41
2022-09-24T14:28:50.828Z,96808.09
2022-09-24T14:33:52.809Z,96801.47
2022-09-24T14:39:04.047Z,96790.03
2022-09-24T14:44:20.584Z,96778.38
2022-09-24T14:49:32.469Z,96783.88
2022-09-24T14:54:40.293Z,96784.72
2022-09-24T14:59:41.911Z,96784.66
2022-09-24T15:05:01.915Z,96776.56
2022-09-24T15:10:06.828Z,96785.03
2022-09-24T15:15:17.502Z,96780.84
2022-09-24T15:20:19.132Z,96782.16
2022-09-24T15:25:20.761Z,96790.34
2022-09-24T15:30:22.417Z,96783.88
2022-09-24T15:35:24.477Z,96780.19
2022-09-24T15:40:30.648Z,96780.91
2022-09-24T15:45:32.267Z,96770.69
2022-09-24T15:50:33.981Z,96785.47
2022-09-24T15:55:36.456Z,96765.22
2022-09-24T16:00:38.143Z,96772.41
2022-09-24T16:05:39.754Z,96773.03
2022-09-24T16:10:42.066Z,96768.13
2022-09-24T16:15:44.169Z,96774.28
2022-09-24T16:20:47.274Z,96765.47
2022-09-24T16:25:59.366Z,96765.56
2022-09-24T16:31:06.416Z,96773.56
2022-09-24T16:36:08.950Z,96761.63
2022-09-24T16:41:10.807Z,96778.28
2022-09-24T16:46:16.362Z,96775.13
2022-09-24T16:51:21.604Z,96780.84
2022-09-24T16:56:23.993Z,96776.75
2022-09-24T17:01:25.709Z,96783.09
2022-09-24T17:06:29.891Z,96791.69
2022-09-24T17:11:31.577Z,96790.84
2022-09-24T17:16:34.749Z,96788.41
2022-09-24T17:21:38.755Z,96785.66
2022-09-24T17:26:40.553Z,96790.31
2022-09-24T17:31:42.247Z,96791.03
2022-09-24T17:36:43.920Z,96795.50
2022-09-24T17:41:45.521Z,96800.81
2022-09-24T17:46:47.164Z,96797.97
2022-09-24T17:51:49.359Z,96802.69
2022-09-24T17:56:51.231Z,96801.00
2022-09-24T18:01:52.903Z,96801.53
2022-09-24T18:06:54.548Z,96792.16
2022-09-24T18:11:57.101Z,96795.63
2022-09-24T18:16:59.821Z,96804.06
2022-09-24T18:22:03.402Z,96803.56
2022-09-24T18:27:05.221Z,96798.84
2022-09-24T18:32:07.395Z,96806.19
2022-09-24T18:37:09.524Z,96815.50
2022-09-24T18:42:11.385Z,96816.00
2022-09-24T18:47:14.711Z,96820.41
2022-09-24T18:52:16.394Z,96818.34
2022-09-24T18:57:18.218Z,96819.97
2022-09-24T19:02:23.746Z,96812.63
2022-09-24T19:07:25.441Z,96826.28
2022-09-24T19:12:29.766Z,96826.28
2022-09-24T19:17:32.206Z,96827.91
2022-09-24T19:22:33.842Z,96820.34
2022-09-24T19:27:35.635Z,96814.38
2022-09-24T19:32:38.896Z,96820.34
2022-09-24T19:37:40.563Z,96829.09
2022-09-24T19:42:42.278Z,96827.25
2022-09-24T19:47:43.949Z,96830.75
2022-09-24T19:52:48.118Z,96825.44
2022-09-24T19:57:50.105Z,96826.88
2022-09-24T20:02:52.311Z,96825.31
2022-09-24T20:07:54.046Z,96834.59
2022-09-24T20:12:55.656Z,96822.78
2022-09-24T20:17:57.390Z,96824.41
2022-09-24T20:22:59.714Z,96818.91
2022-09-24T20:28:01.733Z,96818.91
2022-09-24T20:33:07.470Z,96819.50
2022-09-24T20:38:09.447Z,96817.06
2022-09-24T20:43:11.238Z,96814.84
2022-09-24T20:48:12.882Z,96810.72
2022-09-24T20:53:14.514Z,96814.56
2022-09-24T20:58:16.376Z,96806.34
2022-09-24T21:03:42.183Z,96808.38
2022-09-24T21:08:42.482Z,96798.88
2022-09-24T21:13:49.946Z,96799.81
2022-09-24T21:18:54.204Z,96811.03
2022-09-24T21:23:58.809Z,96806.66
2022-09-24T21:29:10.270Z,96801.44
2022-09-24T21:34:14.100Z,96815.22
2022-09-24T21:39:18.290Z,96811.13
2022-09-24T21:44:21.274Z,96809.69
2022-09-24T21:49:23.244Z,96808.28
2022-09-24T21:54:24.915Z,96808.56
2022-09-24T21:59:45.130Z,96811.72
2022-09-24T22:04:47.378Z,96809.88
2022-09-24T22:09:49.990Z,96802.41
2022-09-24T22:14:52.312Z,96795.22
2022-09-24T22:19:54.179Z,96800.13
2022-09-24T22:24:55.825Z,96796.75
2022-09-24T22:29:57.868Z,96799.72
2022-09-24T22:35:17.953Z,96792.56
2022-09-24T22:40:19.789Z,96793.56
2022-09-24T22:45:21.466Z,96795.28
2022-09-24T22:50:23.093Z,96806.22
2022-09-24T22:55:24.900Z,96797.66
2022-09-24T23:00:26.572Z,96795.41
2022-09-24T23:05:29.600Z,96795.41
2022-09-24T23:10:31.336Z,96791.41
2022-09-24T23:15:32.979Z,96786.50
2022-09-24T23:20:35.078Z,96788.78
2022-09-24T23:25:36.759Z,96789.81
2022-09-24T23:30:38.662Z,96783.75
2022-09-24T23:35:40.356Z,96779.00
2022-09-24T23:40:42.065Z,96781.53
2022-09-24T23:45:44.794Z,96782.16
2022-09-24T23:50:47.877Z,96781.22
2022-09-24T23:55:49.886Z,96773.25
